sensor_id;sensor_type;location;lat;lon;timestamp;P1;durP1;ratioP1;P2;durP2;ratioP2
73661;SDS011;61956;52.540;13.382;2022-10-18T00:01:38;5.78;;;1.83;;
73661;SDS011;61956;52.540;13.382;2022-10-18T00:04:10;12.83;;;3.87;;
73661;SDS011;61956;52.540;13.382;2022-10-18T00:06:39;7.60;;;2.25;;
73661;SDS011;61956;52.540;13.382;2022-10-18T00:09:08;4.22;;;1.45;;
73661;SDS011;61956;52.540;13.382;2022-10-18T00:11:37;9.38;;;1.98;;
73661;SDS011;61956;52.540;13.382;2022-10-18T00:14:07;6.05;;;2.42;;
73661;SDS011;61956;52.540;13.382;2022-10-18T00:16:36;5.60;;;1.60;;
73661;SDS011;61956;52.540;13.382;2022-10-18T00:19:05;6.00;;;2.22;;
73661;SDS011;61956;52.540;13.382;2022-10-18T00:21:37;6.20;;;1.67;;
73661;SDS011;61956;52.540;13.382;2022-10-18T00:24:06;5.72;;;2.08;;
73661;SDS011;61956;52.540;13.382;2022-10-18T00:26:35;5.47;;;1.67;;
73661;SDS011;61956;52.540;13.382;2022-10-18T00:29:04;6.27;;;2.30;;
73661;SDS011;61956;52.540;13.382;2022-10-18T00:31:35;7.05;;;2.40;;
73661;SDS011;61956;52.540;13.382;2022-10-18T00:34:06;4.75;;;1.83;;
73661;SDS011;61956;52.540;13.382;2022-10-18T00:36:46;8.07;;;2.28;;
73661;SDS011;61956;52.540;13.382;2022-10-18T00:39:16;6.60;;;2.25;;
73661;SDS011;61956;52.540;13.382;2022-10-18T00:41:48;4.00;;;1.30;;
73661;SDS011;61956;52.540;13.382;2022-10-18T00:47:34;7.63;;;2.17;;
73661;SDS011;61956;52.540;13.382;2022-10-18T00:50:04;6.95;;;1.77;;
73661;SDS011;61956;52.540;13.382;2022-10-18T00:52:39;9.55;;;2.45;;
73661;SDS011;61956;52.540;13.382;2022-10-18T00:55:13;6.53;;;2.00;;
73661;SDS011;61956;52.540;13.382;2022-10-18T00:57:42;5.72;;;1.98;;
73661;SDS011;61956;52.540;13.382;2022-10-18T01:00:13;5.10;;;1.90;;
73661;SDS011;61956;52.540;13.382;2022-10-18T01:02:42;7.82;;;2.15;;
73661;SDS011;61956;52.540;13.382;2022-10-18T01:05:14;6.53;;;2.40;;
73661;SDS011;61956;52.540;13.382;2022-10-18T01:10:59;7.47;;;2.08;;
73661;SDS011;61956;52.540;13.382;2022-10-18T01:13:44;6.07;;;1.95;;
73661;SDS011;61956;52.540;13.382;2022-10-18T01:16:30;4.90;;;1.70;;
73661;SDS011;61956;52.540;13.382;2022-10-18T01:19:06;6.55;;;2.20;;
73661;SDS011;61956;52.540;13.382;2022-10-18T01:22:10;6.73;;;2.37;;
73661;SDS011;61956;52.540;13.382;2022-10-18T01:25:04;5.00;;;1.60;;
73661;SDS011;61956;52.540;13.382;2022-10-18T01:31:04;5.40;;;2.00;;
73661;SDS011;61956;52.540;13.382;2022-10-18T01:33:40;5.75;;;2.20;;
73661;SDS011;61956;52.540;13.382;2022-10-18T01:36:18;6.93;;;2.40;;
73661;SDS011;61956;52.540;13.382;2022-10-18T01:38:54;5.35;;;2.17;;
73661;SDS011;61956;52.540;13.382;2022-10-18T01:41:30;5.07;;;1.85;;
73661;SDS011;61956;52.540;13.382;2022-10-18T01:44:02;7.10;;;2.40;;
73661;SDS011;61956;52.540;13.382;2022-10-18T01:46:39;9.63;;;2.63;;
73661;SDS011;61956;52.540;13.382;2022-10-18T01:49:12;5.45;;;2.15;;
73661;SDS011;61956;52.540;13.382;2022-10-18T01:51:41;5.40;;;2.05;;
73661;SDS011;61956;52.540;13.382;2022-10-18T01:54:11;6.72;;;1.88;;
73661;SDS011;61956;52.540;13.382;2022-10-18T01:56:49;6.15;;;1.77;;
73661;SDS011;61956;52.540;13.382;2022-10-18T01:59:31;4.88;;;1.63;;
73661;SDS011;61956;52.540;13.382;2022-10-18T02:02:20;5.38;;;1.90;;
73661;SDS011;61956;52.540;13.382;2022-10-18T02:05:11;5.82;;;2.30;;
73661;SDS011;61956;52.540;13.382;2022-10-18T02:07:52;4.78;;;1.80;;
73661;SDS011;61956;52.540;13.382;2022-10-18T02:10:35;5.00;;;1.85;;
73661;SDS011;61956;52.540;13.382;2022-10-18T02:13:11;5.53;;;2.28;;
73661;SDS011;61956;52.540;13.382;2022-10-18T02:15:47;6.33;;;2.57;;
73661;SDS011;61956;52.540;13.382;2022-10-18T02:18:28;6.82;;;2.17;;
73661;SDS011;61956;52.540;13.382;2022-10-18T02:21:04;5.50;;;2.15;;
73661;SDS011;61956;52.540;13.382;2022-10-18T02:23:41;8.43;;;2.72;;
73661;SDS011;61956;52.540;13.382;2022-10-18T02:26:13;5.78;;;2.15;;
73661;SDS011;61956;52.540;13.382;2022-10-18T02:28:43;6.37;;;2.53;;
73661;SDS011;61956;52.540;13.382;2022-10-18T02:31:14;8.10;;;2.05;;
73661;SDS011;61956;52.540;13.382;2022-10-18T02:33:55;8.15;;;2.33;;
73661;SDS011;61956;52.540;13.382;2022-10-18T02:36:30;8.57;;;2.90;;
73661;SDS011;61956;52.540;13.382;2022-10-18T02:39:07;7.43;;;2.45;;
73661;SDS011;61956;52.540;13.382;2022-10-18T02:41:43;5.67;;;1.90;;
73661;SDS011;61956;52.540;13.382;2022-10-18T02:44:12;7.13;;;2.65;;
73661;SDS011;61956;52.540;13.382;2022-10-18T02:46:42;5.68;;;2.03;;
73661;SDS011;61956;52.540;13.382;2022-10-18T02:49:15;6.65;;;2.28;;
73661;SDS011;61956;52.540;13.382;2022-10-18T02:51:44;6.70;;;2.20;;
73661;SDS011;61956;52.540;13.382;2022-10-18T02:54:13;6.35;;;2.50;;
73661;SDS011;61956;52.540;13.382;2022-10-18T02:56:42;5.05;;;1.50;;
73661;SDS011;61956;52.540;13.382;2022-10-18T02:59:11;5.75;;;1.83;;
73661;SDS011;61956;52.540;13.382;2022-10-18T03:01:41;5.38;;;2.00;;
73661;SDS011;61956;52.540;13.382;2022-10-18T03:04:10;7.40;;;2.03;;
73661;SDS011;61956;52.540;13.382;2022-10-18T03:06:42;8.37;;;1.90;;
73661;SDS011;61956;52.540;13.382;2022-10-18T03:09:11;7.97;;;2.95;;
73661;SDS011;61956;52.540;13.382;2022-10-18T03:11:40;5.53;;;1.88;;
73661;SDS011;61956;52.540;13.382;2022-10-18T03:14:09;5.13;;;2.45;;
73661;SDS011;61956;52.540;13.382;2022-10-18T03:16:38;5.63;;;1.58;;
73661;SDS011;61956;52.540;13.382;2022-10-18T03:19:07;8.93;;;2.33;;
73661;SDS011;61956;52.540;13.382;2022-10-18T03:21:36;7.88;;;2.17;;
73661;SDS011;61956;52.540;13.382;2022-10-18T03:24:08;5.35;;;2.03;;
73661;SDS011;61956;52.540;13.382;2022-10-18T03:26:37;7.00;;;1.80;;
73661;SDS011;61956;52.540;13.382;2022-10-18T03:29:07;6.72;;;2.30;;
73661;SDS011;61956;52.540;13.382;2022-10-18T03:31:37;5.07;;;1.87;;
73661;SDS011;61956;52.540;13.382;2022-10-18T03:34:06;5.07;;;1.63;;
73661;SDS011;61956;52.540;13.382;2022-10-18T03:36:35;9.18;;;2.63;;
73661;SDS011;61956;52.540;13.382;2022-10-18T03:39:08;7.20;;;1.75;;
73661;SDS011;61956;52.540;13.382;2022-10-18T03:41:39;5.00;;;1.70;;
73661;SDS011;61956;52.540;13.382;2022-10-18T03:44:08;5.10;;;1.80;;
73661;SDS011;61956;52.540;13.382;2022-10-18T03:46:37;6.72;;;1.73;;
73661;SDS011;61956;52.540;13.382;2022-10-18T03:49:06;5.47;;;1.98;;
73661;SDS011;61956;52.540;13.382;2022-10-18T03:51:35;7.75;;;1.77;;
73661;SDS011;61956;52.540;13.382;2022-10-18T03:54:05;5.75;;;1.95;;
73661;SDS011;61956;52.540;13.382;2022-10-18T03:56:36;5.03;;;1.80;;
73661;SDS011;61956;52.540;13.382;2022-10-18T03:59:05;5.70;;;1.60;;
73661;SDS011;61956;52.540;13.382;2022-10-18T04:01:35;6.07;;;1.63;;
73661;SDS011;61956;52.540;13.382;2022-10-18T04:04:04;7.40;;;2.42;;
73661;SDS011;61956;52.540;13.382;2022-10-18T04:06:33;5.30;;;2.03;;
73661;SDS011;61956;52.540;13.382;2022-10-18T04:09:02;6.90;;;2.20;;
73661;SDS011;61956;52.540;13.382;2022-10-18T04:11:34;7.05;;;2.25;;
73661;SDS011;61956;52.540;13.382;2022-10-18T04:14:03;4.90;;;1.20;;
73661;SDS011;61956;52.540;13.382;2022-10-18T04:16:32;7.43;;;2.47;;
73661;SDS011;61956;52.540;13.382;2022-10-18T04:19:01;6.38;;;2.40;;
73661;SDS011;61956;52.540;13.382;2022-10-18T04:21:31;6.73;;;2.27;;
73661;SDS011;61956;52.540;13.382;2022-10-18T04:24:00;4.70;;;1.23;;
73661;SDS011;61956;52.540;13.382;2022-10-18T04:26:29;6.68;;;1.70;;
73661;SDS011;61956;52.540;13.382;2022-10-18T04:29:00;5.13;;;1.83;;
73661;SDS011;61956;52.540;13.382;2022-10-18T04:31:30;4.82;;;1.60;;
73661;SDS011;61956;52.540;13.382;2022-10-18T04:33:59;7.80;;;2.13;;
73661;SDS011;61956;52.540;13.382;2022-10-18T04:36:28;5.85;;;1.77;;
73661;SDS011;61956;52.540;13.382;2022-10-18T04:38:58;5.03;;;1.75;;
73661;SDS011;61956;52.540;13.382;2022-10-18T04:41:27;5.50;;;1.98;;
73661;SDS011;61956;52.540;13.382;2022-10-18T04:43:56;5.47;;;1.90;;
73661;SDS011;61956;52.540;13.382;2022-10-18T04:46:28;4.50;;;1.37;;
73661;SDS011;61956;52.540;13.382;2022-10-18T04:48:57;5.32;;;1.92;;
73661;SDS011;61956;52.540;13.382;2022-10-18T04:51:26;6.13;;;2.28;;
73661;SDS011;61956;52.540;13.382;2022-10-18T04:53:56;5.28;;;2.05;;
73661;SDS011;61956;52.540;13.382;2022-10-18T04:56:25;6.40;;;2.45;;
73661;SDS011;61956;52.540;13.382;2022-10-18T04:58:54;4.60;;;1.70;;
73661;SDS011;61956;52.540;13.382;2022-10-18T05:01:23;5.47;;;1.80;;
73661;SDS011;61956;52.540;13.382;2022-10-18T05:03:55;6.05;;;1.98;;
73661;SDS011;61956;52.540;13.382;2022-10-18T05:06:24;4.35;;;1.23;;
73661;SDS011;61956;52.540;13.382;2022-10-18T05:08:53;5.85;;;1.50;;
73661;SDS011;61956;52.540;13.382;2022-10-18T05:11:23;7.23;;;2.60;;
73661;SDS011;61956;52.540;13.382;2022-10-18T05:13:52;4.30;;;1.27;;
73661;SDS011;61956;52.540;13.382;2022-10-18T05:16:21;5.32;;;1.92;;
73661;SDS011;61956;52.540;13.382;2022-10-18T05:18:50;4.20;;;1.40;;
73661;SDS011;61956;52.540;13.382;2022-10-18T05:21:22;5.68;;;1.73;;
73661;SDS011;61956;52.540;13.382;2022-10-18T05:23:53;7.27;;;1.63;;
73661;SDS011;61956;52.540;13.382;2022-10-18T05:26:23;5.53;;;1.98;;
73661;SDS011;61956;52.540;13.382;2022-10-18T05:28:52;7.88;;;2.67;;
73661;SDS011;61956;52.540;13.382;2022-10-18T05:31:21;4.40;;;1.38;;
73661;SDS011;61956;52.540;13.382;2022-10-18T05:33:51;4.05;;;1.38;;
73661;SDS011;61956;52.540;13.382;2022-10-18T05:36:22;5.57;;;1.70;;
73661;SDS011;61956;52.540;13.382;2022-10-18T05:38:52;4.13;;;1.25;;
73661;SDS011;61956;52.540;13.382;2022-10-18T05:41:21;4.57;;;1.73;;
73661;SDS011;61956;52.540;13.382;2022-10-18T05:43:50;4.75;;;1.60;;
73661;SDS011;61956;52.540;13.382;2022-10-18T05:46:19;4.63;;;1.58;;
73661;SDS011;61956;52.540;13.382;2022-10-18T05:48:48;7.17;;;2.33;;
73661;SDS011;61956;52.540;13.382;2022-10-18T05:51:18;3.10;;;1.10;;
73661;SDS011;61956;52.540;13.382;2022-10-18T05:53:50;4.10;;;1.20;;
73661;SDS011;61956;52.540;13.382;2022-10-18T05:56:20;4.07;;;1.35;;
73661;SDS011;61956;52.540;13.382;2022-10-18T05:58:49;3.55;;;1.27;;
73661;SDS011;61956;52.540;13.382;2022-10-18T06:01:19;5.17;;;1.70;;
73661;SDS011;61956;52.540;13.382;2022-10-18T06:03:49;5.13;;;1.70;;
73661;SDS011;61956;52.540;13.382;2022-10-18T06:06:18;4.90;;;1.42;;
73661;SDS011;61956;52.540;13.382;2022-10-18T06:08:50;4.75;;;1.83;;
73661;SDS011;61956;52.540;13.382;2022-10-18T06:11:19;5.35;;;1.70;;
73661;SDS011;61956;52.540;13.382;2022-10-18T06:13:49;2.65;;;1.05;;
73661;SDS011;61956;52.540;13.382;2022-10-18T06:16:20;3.85;;;1.05;;
73661;SDS011;61956;52.540;13.382;2022-10-18T06:18:55;5.70;;;2.03;;
73661;SDS011;61956;52.540;13.382;2022-10-18T06:21:27;3.55;;;1.08;;
73661;SDS011;61956;52.540;13.382;2022-10-18T06:23:57;3.17;;;1.13;;
73661;SDS011;61956;52.540;13.382;2022-10-18T06:26:27;3.67;;;1.10;;
73661;SDS011;61956;52.540;13.382;2022-10-18T06:28:56;4.97;;;1.30;;
73661;SDS011;61956;52.540;13.382;2022-10-18T06:31:25;3.67;;;1.17;;
73661;SDS011;61956;52.540;13.382;2022-10-18T06:33:54;4.88;;;1.30;;
73661;SDS011;61956;52.540;13.382;2022-10-18T06:36:27;5.80;;;2.03;;
73661;SDS011;61956;52.540;13.382;2022-10-18T06:38:57;3.93;;;1.30;;
73661;SDS011;61956;52.540;13.382;2022-10-18T06:41:26;6.43;;;2.28;;
73661;SDS011;61956;52.540;13.382;2022-10-18T06:44:01;3.60;;;1.25;;
73661;SDS011;61956;52.540;13.382;2022-10-18T06:46:38;3.65;;;0.98;;
73661;SDS011;61956;52.540;13.382;2022-10-18T06:49:07;5.35;;;1.67;;
73661;SDS011;61956;52.540;13.382;2022-10-18T06:51:39;4.03;;;1.37;;
73661;SDS011;61956;52.540;13.382;2022-10-18T06:54:10;2.88;;;0.90;;
73661;SDS011;61956;52.540;13.382;2022-10-18T06:56:39;3.67;;;1.23;;
73661;SDS011;61956;52.540;13.382;2022-10-18T06:59:08;6.05;;;2.22;;
73661;SDS011;61956;52.540;13.382;2022-10-18T07:01:38;7.60;;;1.67;;
73661;SDS011;61956;52.540;13.382;2022-10-18T07:04:07;4.00;;;1.20;;
73661;SDS011;61956;52.540;13.382;2022-10-18T07:06:39;3.50;;;1.10;;
73661;SDS011;61956;52.540;13.382;2022-10-18T07:09:08;3.55;;;0.93;;
73661;SDS011;61956;52.540;13.382;2022-10-18T07:11:37;5.05;;;1.25;;
73661;SDS011;61956;52.540;13.382;2022-10-18T07:14:07;4.20;;;1.02;;
73661;SDS011;61956;52.540;13.382;2022-10-18T07:16:36;5.33;;;1.53;;
73661;SDS011;61956;52.540;13.382;2022-10-18T07:19:05;3.78;;;1.00;;
73661;SDS011;61956;52.540;13.382;2022-10-18T07:21:35;6.00;;;1.98;;
73661;SDS011;61956;52.540;13.382;2022-10-18T07:24:06;3.15;;;0.98;;
73661;SDS011;61956;52.540;13.382;2022-10-18T07:26:36;4.95;;;1.20;;
73661;SDS011;61956;52.540;13.382;2022-10-18T07:29:07;3.85;;;1.00;;
73661;SDS011;61956;52.540;13.382;2022-10-18T07:31:38;3.55;;;1.15;;
73661;SDS011;61956;52.540;13.382;2022-10-18T07:34:09;3.78;;;1.00;;
73661;SDS011;61956;52.540;13.382;2022-10-18T07:36:41;4.63;;;1.20;;
73661;SDS011;61956;52.540;13.382;2022-10-18T07:39:13;4.18;;;1.13;;
73661;SDS011;61956;52.540;13.382;2022-10-18T07:41:42;5.07;;;1.70;;
73661;SDS011;61956;52.540;13.382;2022-10-18T07:44:11;6.82;;;1.48;;
73661;SDS011;61956;52.540;13.382;2022-10-18T07:46:40;3.78;;;1.17;;
73661;SDS011;61956;52.540;13.382;2022-10-18T07:49:09;4.32;;;1.45;;
73661;SDS011;61956;52.540;13.382;2022-10-18T07:51:38;4.60;;;1.30;;
73661;SDS011;61956;52.540;13.382;2022-10-18T07:54:08;4.63;;;1.40;;
73661;SDS011;61956;52.540;13.382;2022-10-18T07:56:40;5.22;;;1.55;;
73661;SDS011;61956;52.540;13.382;2022-10-18T07:59:10;5.65;;;1.55;;
73661;SDS011;61956;52.540;13.382;2022-10-18T08:01:39;5.47;;;1.60;;
73661;SDS011;61956;52.540;13.382;2022-10-18T08:04:09;4.60;;;1.42;;
73661;SDS011;61956;52.540;13.382;2022-10-18T08:06:38;4.77;;;1.50;;
73661;SDS011;61956;52.540;13.382;2022-10-18T08:09:07;4.25;;;1.60;;
73661;SDS011;61956;52.540;13.382;2022-10-18T08:11:39;7.57;;;2.53;;
73661;SDS011;61956;52.540;13.382;2022-10-18T08:14:09;4.90;;;1.58;;
73661;SDS011;61956;52.540;13.382;2022-10-18T08:16:38;4.72;;;1.45;;
73661;SDS011;61956;52.540;13.382;2022-10-18T08:19:07;5.47;;;1.90;;
73661;SDS011;61956;52.540;13.382;2022-10-18T08:21:36;4.90;;;1.52;;
73661;SDS011;61956;52.540;13.382;2022-10-18T08:24:05;5.65;;;1.70;;
73661;SDS011;61956;52.540;13.382;2022-10-18T08:26:34;4.40;;;1.15;;
73661;SDS011;61956;52.540;13.382;2022-10-18T08:29:05;8.05;;;1.42;;
73661;SDS011;61956;52.540;13.382;2022-10-18T08:31:35;4.47;;;1.10;;
73661;SDS011;61956;52.540;13.382;2022-10-18T08:34:05;4.20;;;1.15;;
73661;SDS011;61956;52.540;13.382;2022-10-18T08:36:34;5.93;;;1.42;;
73661;SDS011;61956;52.540;13.382;2022-10-18T08:39:04;3.28;;;1.08;;
73661;SDS011;61956;52.540;13.382;2022-10-18T08:41:42;2.80;;;0.90;;
73661;SDS011;61956;52.540;13.382;2022-10-18T08:44:32;4.70;;;0.88;;
73661;SDS011;61956;52.540;13.382;2022-10-18T08:47:13;3.53;;;1.02;;
73661;SDS011;61956;52.540;13.382;2022-10-18T08:49:47;4.78;;;1.60;;
73661;SDS011;61956;52.540;13.382;2022-10-18T08:52:23;4.68;;;1.60;;
73661;SDS011;61956;52.540;13.382;2022-10-18T08:55:01;4.82;;;0.98;;
73661;SDS011;61956;52.540;13.382;2022-10-18T08:57:37;4.50;;;1.23;;
73661;SDS011;61956;52.540;13.382;2022-10-18T09:00:10;2.60;;;0.70;;
73661;SDS011;61956;52.540;13.382;2022-10-18T09:02:48;3.80;;;1.02;;
73661;SDS011;61956;52.540;13.382;2022-10-18T09:05:40;5.35;;;1.10;;
73661;SDS011;61956;52.540;13.382;2022-10-18T09:08:21;4.20;;;0.85;;
73661;SDS011;61956;52.540;13.382;2022-10-18T09:11:22;5.77;;;1.43;;
73661;SDS011;61956;52.540;13.382;2022-10-18T09:14:18;6.22;;;1.15;;
73661;SDS011;61956;52.540;13.382;2022-10-18T09:17:19;5.78;;;1.40;;
73661;SDS011;61956;52.540;13.382;2022-10-18T09:23:38;3.63;;;0.65;;
73661;SDS011;61956;52.540;13.382;2022-10-18T09:26:15;7.27;;;1.37;;
73661;SDS011;61956;52.540;13.382;2022-10-18T09:28:52;3.67;;;1.20;;
73661;SDS011;61956;52.540;13.382;2022-10-18T09:31:38;3.22;;;1.27;;
73661;SDS011;61956;52.540;13.382;2022-10-18T09:34:18;3.88;;;1.17;;
73661;SDS011;61956;52.540;13.382;2022-10-18T09:37:03;3.10;;;0.80;;
73661;SDS011;61956;52.540;13.382;2022-10-18T09:39:39;3.67;;;1.20;;
73661;SDS011;61956;52.540;13.382;2022-10-18T09:42:10;3.17;;;0.88;;
73661;SDS011;61956;52.540;13.382;2022-10-18T09:44:52;3.13;;;0.88;;
73661;SDS011;61956;52.540;13.382;2022-10-18T09:47:28;3.83;;;0.90;;
73661;SDS011;61956;52.540;13.382;2022-10-18T09:50:12;5.53;;;1.08;;
73661;SDS011;61956;52.540;13.382;2022-10-18T09:52:47;4.50;;;1.40;;
73661;SDS011;61956;52.540;13.382;2022-10-18T09:55:25;4.05;;;1.05;;
73661;SDS011;61956;52.540;13.382;2022-10-18T09:58:01;2.67;;;0.75;;
73661;SDS011;61956;52.540;13.382;2022-10-18T10:00:37;3.65;;;1.00;;
73661;SDS011;61956;52.540;13.382;2022-10-18T10:03:15;2.85;;;0.80;;
73661;SDS011;61956;52.540;13.382;2022-10-18T10:05:47;4.13;;;1.20;;
73661;SDS011;61956;52.540;13.382;2022-10-18T10:08:43;3.35;;;1.00;;
73661;SDS011;61956;52.540;13.382;2022-10-18T10:11:27;4.38;;;1.17;;
73661;SDS011;61956;52.540;13.382;2022-10-18T10:14:06;3.40;;;1.10;;
73661;SDS011;61956;52.540;13.382;2022-10-18T10:16:43;6.07;;;1.38;;
73661;SDS011;61956;52.540;13.382;2022-10-18T10:19:19;3.33;;;1.10;;
73661;SDS011;61956;52.540;13.382;2022-10-18T10:22:00;4.15;;;1.00;;
73661;SDS011;61956;52.540;13.382;2022-10-18T10:24:36;4.72;;;1.17;;
73661;SDS011;61956;52.540;13.382;2022-10-18T10:27:16;4.88;;;1.30;;
73661;SDS011;61956;52.540;13.382;2022-10-18T10:30:00;4.10;;;1.15;;
73661;SDS011;61956;52.540;13.382;2022-10-18T10:32:31;4.87;;;1.43;;
73661;SDS011;61956;52.540;13.382;2022-10-18T10:35:24;4.70;;;1.73;;
73661;SDS011;61956;52.540;13.382;2022-10-18T10:38:02;4.25;;;1.40;;
73661;SDS011;61956;52.540;13.382;2022-10-18T10:40:32;4.72;;;1.35;;
73661;SDS011;61956;52.540;13.382;2022-10-18T10:43:14;3.72;;;0.98;;
73661;SDS011;61956;52.540;13.382;2022-10-18T10:45:54;4.60;;;1.40;;
73661;SDS011;61956;52.540;13.382;2022-10-18T10:48:30;3.90;;;1.30;;
73661;SDS011;61956;52.540;13.382;2022-10-18T10:51:03;4.75;;;1.48;;
73661;SDS011;61956;52.540;13.382;2022-10-18T10:53:43;4.03;;;1.08;;
73661;SDS011;61956;52.540;13.382;2022-10-18T10:56:20;7.43;;;1.40;;
73661;SDS011;61956;52.540;13.382;2022-10-18T10:58:54;7.13;;;2.40;;
73661;SDS011;61956;52.540;13.382;2022-10-18T11:01:29;4.13;;;1.20;;
73661;SDS011;61956;52.540;13.382;2022-10-18T11:04:01;4.80;;;1.30;;
73661;SDS011;61956;52.540;13.382;2022-10-18T11:06:52;4.93;;;1.60;;
73661;SDS011;61956;52.540;13.382;2022-10-18T11:09:44;5.65;;;1.75;;
73661;SDS011;61956;52.540;13.382;2022-10-18T11:12:25;5.20;;;1.43;;
73661;SDS011;61956;52.540;13.382;2022-10-18T11:15:09;5.85;;;1.75;;
73661;SDS011;61956;52.540;13.382;2022-10-18T11:17:54;6.47;;;1.35;;
73661;SDS011;61956;52.540;13.382;2022-10-18T11:20:39;4.30;;;1.40;;
73661;SDS011;61956;52.540;13.382;2022-10-18T11:23:14;4.30;;;1.33;;
73661;SDS011;61956;52.540;13.382;2022-10-18T11:25:51;3.93;;;1.17;;
73661;SDS011;61956;52.540;13.382;2022-10-18T11:28:43;4.60;;;1.40;;
73661;SDS011;61956;52.540;13.382;2022-10-18T11:31:28;5.30;;;1.30;;
73661;SDS011;61956;52.540;13.382;2022-10-18T11:34:13;4.18;;;1.20;;
73661;SDS011;61956;52.540;13.382;2022-10-18T11:36:58;3.53;;;1.20;;
73661;SDS011;61956;52.540;13.382;2022-10-18T11:39:41;4.17;;;1.30;;
73661;SDS011;61956;52.540;13.382;2022-10-18T11:42:29;8.25;;;1.42;;
73661;SDS011;61956;52.540;13.382;2022-10-18T11:45:11;3.80;;;1.00;;
73661;SDS011;61956;52.540;13.382;2022-10-18T11:47:58;3.75;;;1.00;;
73661;SDS011;61956;52.540;13.382;2022-10-18T11:50:40;4.18;;;1.08;;
73661;SDS011;61956;52.540;13.382;2022-10-18T11:53:22;4.77;;;1.50;;
73661;SDS011;61956;52.540;13.382;2022-10-18T11:56:02;4.65;;;1.40;;
73661;SDS011;61956;52.540;13.382;2022-10-18T11:58:56;5.82;;;1.60;;
73661;SDS011;61956;52.540;13.382;2022-10-18T12:02:01;5.07;;;1.10;;
73661;SDS011;61956;52.540;13.382;2022-10-18T12:04:55;5.25;;;1.30;;
73661;SDS011;61956;52.540;13.382;2022-10-18T12:07:29;4.57;;;1.53;;
73661;SDS011;61956;52.540;13.382;2022-10-18T12:10:03;4.03;;;1.15;;
73661;SDS011;61956;52.540;13.382;2022-10-18T12:12:37;3.42;;;0.90;;
73661;SDS011;61956;52.540;13.382;2022-10-18T12:15:20;4.70;;;1.65;;
73661;SDS011;61956;52.540;13.382;2022-10-18T12:17:53;5.38;;;1.58;;
73661;SDS011;61956;52.540;13.382;2022-10-18T12:20:28;5.17;;;1.20;;
73661;SDS011;61956;52.540;13.382;2022-10-18T12:23:01;4.43;;;1.20;;
73661;SDS011;61956;52.540;13.382;2022-10-18T12:25:37;4.80;;;1.63;;
73661;SDS011;61956;52.540;13.382;2022-10-18T12:28:14;4.35;;;1.45;;
73661;SDS011;61956;52.540;13.382;2022-10-18T12:31:11;3.15;;;1.00;;
73661;SDS011;61956;52.540;13.382;2022-10-18T12:33:50;5.43;;;1.37;;
73661;SDS011;61956;52.540;13.382;2022-10-18T12:36:29;4.78;;;1.27;;
73661;SDS011;61956;52.540;13.382;2022-10-18T12:39:27;5.47;;;1.75;;
73661;SDS011;61956;52.540;13.382;2022-10-18T12:42:02;4.75;;;1.35;;
73661;SDS011;61956;52.540;13.382;2022-10-18T12:44:32;3.47;;;1.10;;
73661;SDS011;61956;52.540;13.382;2022-10-18T12:47:06;4.77;;;1.23;;
73661;SDS011;61956;52.540;13.382;2022-10-18T12:49:54;3.88;;;1.02;;
73661;SDS011;61956;52.540;13.382;2022-10-18T12:52:26;9.07;;;2.20;;
73661;SDS011;61956;52.540;13.382;2022-10-18T12:55:03;4.32;;;1.38;;
73661;SDS011;61956;52.540;13.382;2022-10-18T12:58:00;5.57;;;1.92;;
73661;SDS011;61956;52.540;13.382;2022-10-18T13:00:58;8.37;;;2.03;;
73661;SDS011;61956;52.540;13.382;2022-10-18T13:03:40;6.10;;;1.83;;
73661;SDS011;61956;52.540;13.382;2022-10-18T13:06:20;5.28;;;1.80;;
73661;SDS011;61956;52.540;13.382;2022-10-18T13:11:44;5.90;;;1.90;;
73661;SDS011;61956;52.540;13.382;2022-10-18T13:14:19;4.50;;;1.83;;
73661;SDS011;61956;52.540;13.382;2022-10-18T13:17:25;3.95;;;1.50;;
73661;SDS011;61956;52.540;13.382;2022-10-18T13:20:14;5.80;;;2.30;;
73661;SDS011;61956;52.540;13.382;2022-10-18T13:23:01;7.88;;;2.25;;
73661;SDS011;61956;52.540;13.382;2022-10-18T13:25:53;5.13;;;1.35;;
73661;SDS011;61956;52.540;13.382;2022-10-18T13:28:38;5.80;;;1.70;;
73661;SDS011;61956;52.540;13.382;2022-10-18T13:31:18;5.50;;;1.92;;
73661;SDS011;61956;52.540;13.382;2022-10-18T13:33:54;5.10;;;1.83;;
73661;SDS011;61956;52.540;13.382;2022-10-18T13:36:45;5.63;;;2.00;;
73661;SDS011;61956;52.540;13.382;2022-10-18T13:39:26;6.07;;;2.05;;
73661;SDS011;61956;52.540;13.382;2022-10-18T13:51:27;6.35;;;2.08;;
73661;SDS011;61956;52.540;13.382;2022-10-18T13:54:15;5.55;;;1.98;;
73661;SDS011;61956;52.540;13.382;2022-10-18T13:57:16;4.70;;;1.50;;
73661;SDS011;61956;52.540;13.382;2022-10-18T14:00:19;5.90;;;1.75;;
73661;SDS011;61956;52.540;13.382;2022-10-18T14:06:33;5.55;;;1.80;;
73661;SDS011;61956;52.540;13.382;2022-10-18T14:09:11;5.72;;;2.15;;
73661;SDS011;61956;52.540;13.382;2022-10-18T14:11:49;4.77;;;1.90;;
73661;SDS011;61956;52.540;13.382;2022-10-18T14:14:23;5.90;;;1.85;;
73661;SDS011;61956;52.540;13.382;2022-10-18T14:17:02;6.72;;;2.72;;
73661;SDS011;61956;52.540;13.382;2022-10-18T14:19:53;7.63;;;1.90;;
73661;SDS011;61956;52.540;13.382;2022-10-18T14:22:32;9.13;;;2.60;;
73661;SDS011;61956;52.540;13.382;2022-10-18T14:25:20;6.30;;;2.80;;
73661;SDS011;61956;52.540;13.382;2022-10-18T14:28:05;6.68;;;2.50;;
73661;SDS011;61956;52.540;13.382;2022-10-18T14:33:31;7.22;;;2.63;;
73661;SDS011;61956;52.540;13.382;2022-10-18T14:36:05;4.88;;;1.80;;
73661;SDS011;61956;52.540;13.382;2022-10-18T14:38:43;5.53;;;2.00;;
73661;SDS011;61956;52.540;13.382;2022-10-18T14:41:19;6.90;;;2.88;;
73661;SDS011;61956;52.540;13.382;2022-10-18T14:43:51;6.20;;;1.92;;
73661;SDS011;61956;52.540;13.382;2022-10-18T14:46:40;9.10;;;2.58;;
73661;SDS011;61956;52.540;13.382;2022-10-18T14:49:12;12.70;;;2.38;;
73661;SDS011;61956;52.540;13.382;2022-10-18T14:51:43;5.73;;;2.00;;
73661;SDS011;61956;52.540;13.382;2022-10-18T14:54:20;7.30;;;2.70;;
73661;SDS011;61956;52.540;13.382;2022-10-18T14:56:55;8.20;;;2.67;;
73661;SDS011;61956;52.540;13.382;2022-10-18T14:59:26;7.38;;;2.70;;
73661;SDS011;61956;52.540;13.382;2022-10-18T15:02:00;7.07;;;3.30;;
73661;SDS011;61956;52.540;13.382;2022-10-18T15:04:39;8.15;;;3.08;;
73661;SDS011;61956;52.540;13.382;2022-10-18T15:07:13;6.88;;;3.20;;
73661;SDS011;61956;52.540;13.382;2022-10-18T15:09:47;12.38;;;3.95;;
73661;SDS011;61956;52.540;13.382;2022-10-18T15:12:19;10.95;;;2.83;;
73661;SDS011;61956;52.540;13.382;2022-10-18T15:14:49;7.88;;;2.70;;
73661;SDS011;61956;52.540;13.382;2022-10-18T15:17:21;8.17;;;2.30;;
73661;SDS011;61956;52.540;13.382;2022-10-18T15:19:58;10.10;;;2.88;;
73661;SDS011;61956;52.540;13.382;2022-10-18T15:22:31;6.85;;;2.13;;
73661;SDS011;61956;52.540;13.382;2022-10-18T15:25:10;6.95;;;2.60;;
73661;SDS011;61956;52.540;13.382;2022-10-18T15:27:47;8.13;;;2.22;;
73661;SDS011;61956;52.540;13.382;2022-10-18T15:30:23;7.60;;;2.90;;
73661;SDS011;61956;52.540;13.382;2022-10-18T15:32:55;6.70;;;2.70;;
73661;SDS011;61956;52.540;13.382;2022-10-18T15:35:28;7.85;;;2.60;;
73661;SDS011;61956;52.540;13.382;2022-10-18T15:37:59;6.18;;;2.80;;
73661;SDS011;61956;52.540;13.382;2022-10-18T15:40:42;8.45;;;3.08;;
73661;SDS011;61956;52.540;13.382;2022-10-18T15:46:04;9.30;;;3.10;;
73661;SDS011;61956;52.540;13.382;2022-10-18T15:48:35;7.03;;;2.40;;
73661;SDS011;61956;52.540;13.382;2022-10-18T15:51:07;11.82;;;3.95;;
73661;SDS011;61956;52.540;13.382;2022-10-18T15:53:51;8.55;;;2.85;;
73661;SDS011;61956;52.540;13.382;2022-10-18T15:56:29;5.97;;;1.90;;